createdAt,value
2023-02-13T00:00:28.398Z,26.89999962
2023-02-13T00:01:29.033Z,24.70000076
2023-02-13T00:02:29.614Z,26.79999924
2023-02-13T00:04:00.800Z,26
2023-02-13T00:05:01.269Z,29.5
2023-02-13T00:06:02.019Z,29.79999924
2023-02-13T00:07:03.395Z,24.20000076
2023-02-13T00:08:04.098Z,29.29999924
2023-02-13T00:09:06.410Z,25.5
2023-02-13T00:10:05.454Z,24.89999962
2023-02-13T00:11:06.086Z,26.89999962
2023-02-13T00:12:06.627Z,24.10000038
2023-02-13T00:13:07.349Z,29.10000038
2023-02-13T00:14:07.990Z,26.29999924
2023-02-13T00:15:08.605Z,27.39999962
2023-02-13T00:16:10.005Z,28.10000038
2023-02-13T00:17:10.599Z,26.70000076
2023-02-13T00:18:11.207Z,26.20000076
2023-02-13T00:19:11.938Z,27.20000076
2023-02-13T00:20:12.484Z,27
2023-02-13T00:21:13.071Z,27.5
2023-02-13T00:22:13.687Z,24.5
2023-02-13T00:23:15.019Z,25.5
2023-02-13T00:24:15.566Z,25.70000076
2023-02-13T00:25:16.197Z,24.79999924
2023-02-13T00:26:16.791Z,25.20000076
2023-02-13T00:27:18.255Z,24.5
2023-02-13T00:28:18.902Z,25.39999962
2023-02-13T00:29:19.523Z,26.60000038
2023-02-13T00:30:20.339Z,23
2023-02-13T00:31:21.041Z,25.5
2023-02-13T00:32:21.860Z,26.5
2023-02-13T00:33:22.704Z,24.60000038
2023-02-13T00:34:23.511Z,25.60000038
2023-02-13T00:35:24.990Z,25.5
2023-02-13T00:36:25.858Z,28.5
2023-02-13T00:37:26.365Z,27.20000076
2023-02-13T00:38:27.338Z,28.10000038
2023-02-13T00:39:27.756Z,26.10000038
2023-02-13T00:40:28.310Z,26.5
2023-02-13T00:41:28.959Z,29.20000076
2023-02-13T00:43:00.495Z,26.60000038
2023-02-13T00:44:01.232Z,28.20000076
2023-02-13T00:45:02.046Z,29.29999924
2023-02-13T00:46:02.758Z,24.20000076
2023-02-13T00:47:04.512Z,28.10000038
2023-02-13T00:48:05.231Z,27
2023-02-13T00:49:05.829Z,25.89999962
2023-02-13T00:50:06.423Z,26.39999962
2023-02-13T00:51:06.968Z,26.60000038
2023-02-13T00:52:07.867Z,26.5
2023-02-13T00:53:08.907Z,25.60000038
2023-02-13T00:54:09.564Z,27.60000038
2023-02-13T00:55:10.540Z,24.5
2023-02-13T00:56:11.172Z,30.39999962
2023-02-13T00:57:12.990Z,26.60000038
2023-02-13T00:58:13.532Z,29.5
2023-02-13T00:59:14.313Z,26.5
2023-02-13T01:00:14.894Z,26.5
2023-02-13T01:01:15.694Z,25.89999962
2023-02-13T01:02:16.327Z,27
2023-02-13T01:03:16.995Z,26.60000038
2023-02-13T01:04:17.548Z,25.89999962
2023-02-13T01:05:18.451Z,27.79999924
2023-02-13T01:06:19.067Z,28.70000076
2023-02-13T01:07:20.293Z,30
2023-02-13T01:08:20.896Z,30.20000076
2023-02-13T01:09:21.619Z,27.5
2023-02-13T01:10:22.758Z,29.20000076
2023-02-13T01:11:23.427Z,28.20000076
2023-02-13T01:12:24.048Z,28.29999924
2023-02-13T01:13:24.674Z,26.5
2023-02-13T01:14:25.351Z,28.70000076
2023-02-13T01:15:26.019Z,28.10000038
2023-02-13T01:16:26.673Z,28.89999962
2023-02-13T01:17:27.676Z,26.70000076
2023-02-13T01:18:28.202Z,27.29999924
2023-02-13T01:19:29.201Z,26.89999962
2023-02-13T01:21:00.419Z,27.89999962
2023-02-13T01:22:00.902Z,25.70000076
2023-02-13T01:23:01.530Z,27.70000076
2023-02-13T01:24:02.983Z,24.89999962
2023-02-13T01:25:03.685Z,26.79999924
2023-02-13T01:26:04.374Z,28.60000038
2023-02-13T01:27:05.950Z,27.39999962
2023-02-13T01:28:06.662Z,26.29999924
2023-02-13T01:29:07.272Z,28.10000038
2023-02-13T01:30:08.701Z,25.89999962
2023-02-13T01:31:09.362Z,28.79999924
2023-02-13T01:32:10.611Z,27.89999962
2023-02-13T01:33:11.258Z,27.10000038
2023-02-13T01:34:11.805Z,29.29999924
2023-02-13T01:35:12.420Z,27
2023-02-13T01:36:12.978Z,27.60000038
2023-02-13T01:37:14.259Z,29.60000038
2023-02-13T01:38:14.890Z,26.89999962
2023-02-13T01:39:15.486Z,28.60000038
2023-02-13T01:40:16.313Z,28.79999924
2023-02-13T01:41:16.866Z,29.29999924
2023-02-13T01:42:17.488Z,25.70000076
2023-02-13T01:43:18.162Z,29.39999962
2023-02-13T01:44:18.906Z,28.39999962
2023-02-13T01:45:19.555Z,28.89999962
2023-02-13T01:46:20.437Z,29.60000038
2023-02-13T01:47:21.677Z,25
2023-02-13T01:48:22.366Z,27.39999962
2023-02-13T01:49:22.977Z,27.79999924
2023-02-13T01:50:23.593Z,27.29999924
2023-02-13T01:51:24.236Z,28.60000038
2023-02-13T01:52:24.903Z,29.29999924
2023-02-13T01:53:26.481Z,27.70000076
2023-02-13T01:54:27.318Z,27.89999962
2023-02-13T01:55:28.011Z,24.29999924
2023-02-13T01:56:59.952Z,28
2023-02-13T01:58:00.642Z,28.39999962
2023-02-13T01:59:01.253Z,26.89999962
2023-02-13T02:00:02.472Z,24.5
2023-02-13T02:01:03.091Z,29.20000076
2023-02-13T02:02:03.827Z,24.89999962
2023-02-13T02:03:04.376Z,27.5
2023-02-13T02:04:05.116Z,25
2023-02-13T02:05:05.803Z,27.70000076
2023-02-13T02:06:06.404Z,24.39999962
2023-02-13T02:07:07.941Z,27
2023-02-13T02:08:08.548Z,24
2023-02-13T02:09:09.173Z,26.20000076
2023-02-13T02:10:09.903Z,25.29999924
2023-02-13T02:11:10.659Z,26.79999924
2023-02-13T02:12:11.299Z,27.10000038
2023-02-13T02:13:12.032Z,28.5
2023-02-13T02:14:12.622Z,24.89999962
2023-02-13T02:15:13.181Z,23.79999924
2023-02-13T02:16:13.977Z,29
2023-02-13T02:17:15.451Z,27.79999924
2023-02-13T02:18:16.062Z,26.79999924
2023-02-13T02:19:16.737Z,25.60000038
2023-02-13T02:20:17.382Z,23.5
2023-02-13T02:21:18.045Z,24.60000038
2023-02-13T02:22:18.688Z,27.10000038
2023-02-13T02:23:19.430Z,25.60000038
2023-02-13T02:24:20.788Z,28.29999924
2023-02-13T02:25:21.401Z,26.10000038
2023-02-13T02:26:22.124Z,25.39999962
2023-02-13T02:27:23.462Z,26.39999962
2023-02-13T02:28:24.114Z,24.79999924
2023-02-13T02:29:25.492Z,26.5
2023-02-13T02:30:26.200Z,22.29999924
2023-02-13T02:31:26.809Z,25.60000038
2023-02-13T02:32:27.445Z,25.29999924
2023-02-13T02:33:28.518Z,25.60000038
2023-02-13T02:34:59.579Z,23.29999924
2023-02-13T02:36:00.219Z,25.60000038
2023-02-13T02:37:00.933Z,24.20000076
2023-02-13T02:38:02.321Z,26.10000038
2023-02-13T02:39:02.932Z,28.29999924
2023-02-13T02:40:03.605Z,27.5
2023-02-13T02:41:04.157Z,24.60000038
2023-02-13T02:42:04.798Z,25.5
2023-02-13T02:43:05.457Z,25.60000038
2023-02-13T02:44:06.052Z,27
2023-02-13T02:45:06.678Z,24.10000038
2023-02-13T02:46:07.277Z,24.60000038
2023-02-13T02:47:07.913Z,24.39999962
2023-02-13T02:48:09.269Z,23.10000038
2023-02-13T02:49:09.931Z,24.79999924
2023-02-13T02:50:10.589Z,24.60000038
2023-02-13T02:51:11.206Z,26.29999924
2023-02-13T02:52:11.788Z,25.79999924
2023-02-13T02:53:12.456Z,26.29999924
2023-02-13T02:54:13.809Z,23.70000076
2023-02-13T02:55:14.484Z,27
2023-02-13T02:56:15.322Z,28.10000038
2023-02-13T02:57:15.845Z,27.20000076
2023-02-13T02:58:17.182Z,24.5
2023-02-13T02:59:17.931Z,25.70000076
2023-02-13T03:00:18.663Z,26
2023-02-13T03:01:19.405Z,25.5
2023-02-13T03:02:19.997Z,26.70000076
2023-02-13T03:03:20.663Z,28.39999962
2023-02-13T03:04:21.526Z,23.5
2023-02-13T03:05:22.128Z,24.89999962
2023-02-13T03:06:23.736Z,25.29999924
2023-02-13T03:07:24.935Z,24.29999924
2023-02-13T03:08:25.617Z,25
2023-02-13T03:09:26.205Z,25.20000076
2023-02-13T03:10:26.946Z,23.60000038
2023-02-13T03:11:28.144Z,24.70000076
2023-02-13T03:12:59.092Z,23.89999962
2023-02-13T03:13:59.695Z,27.70000076
2023-02-13T03:15:00.410Z,26.70000076
2023-02-13T03:16:01.179Z,25.70000076
2023-02-13T03:17:01.733Z,26
2023-02-13T03:18:03.277Z,27.60000038
2023-02-13T03:19:03.928Z,22.89999962
2023-02-13T03:20:04.561Z,24.20000076
2023-02-13T03:21:05.264Z,26.70000076
2023-02-13T03:22:05.980Z,23
2023-02-13T03:23:06.702Z,24.39999962
2023-02-13T03:24:07.868Z,25.70000076
2023-02-13T03:25:08.571Z,24.70000076
2023-02-13T03:26:09.221Z,22.89999962
2023-02-13T03:27:09.823Z,24.29999924
2023-02-13T03:28:11.372Z,26.5
2023-02-13T03:29:11.961Z,24.5
2023-02-13T03:30:12.558Z,26.10000038
2023-02-13T03:31:13.946Z,24.89999962
2023-02-13T03:32:14.583Z,25
2023-02-13T03:33:15.287Z,25.70000076
2023-02-13T03:34:15.964Z,23.89999962
2023-02-13T03:35:16.587Z,24.70000076
2023-02-13T03:36:17.199Z,26
2023-02-13T03:37:17.862Z,23.10000038
2023-02-13T03:38:19.265Z,23.5
2023-02-13T03:39:19.939Z,28
2023-02-13T03:40:20.478Z,25
2023-02-13T03:41:21.135Z,25.60000038
2023-02-13T03:42:21.753Z,26.89999962
2023-02-13T03:43:22.387Z,24.70000076
2023-02-13T03:44:23.093Z,23.39999962
2023-02-13T03:45:23.682Z,26.60000038
2023-02-13T03:46:24.350Z,25.89999962
2023-02-13T03:47:24.954Z,25
2023-02-13T03:48:26.158Z,25.10000038
2023-02-13T03:49:26.746Z,28.5
2023-02-13T03:50:58.437Z,24.79999924
2023-02-13T03:51:58.697Z,24.60000038
2023-02-13T03:52:59.252Z,24.79999924
2023-02-13T03:53:59.881Z,24.60000038
2023-02-13T03:55:01.226Z,24.60000038
2023-02-13T03:56:01.732Z,25.29999924
2023-02-13T03:57:02.344Z,28.5
2023-02-13T03:58:03.901Z,23.29999924
2023-02-13T03:59:04.528Z,25.10000038
2023-02-13T04:00:05.061Z,24.79999924
2023-02-13T04:01:05.677Z,25.10000038
2023-02-13T04:02:06.355Z,24.89999962
2023-02-13T04:03:06.898Z,26
2023-02-13T04:04:07.559Z,23.89999962
2023-02-13T04:05:08.132Z,24
2023-02-13T04:06:08.770Z,26.89999962
2023-02-13T04:07:09.414Z,24.70000076
2023-02-13T04:08:10.869Z,26.39999962
2023-02-13T04:09:11.453Z,24.20000076
2023-02-13T04:10:12.037Z,25.79999924
2023-02-13T04:11:12.591Z,24.20000076
2023-02-13T04:12:13.240Z,28.60000038
2023-02-13T04:13:13.912Z,23.10000038
2023-02-13T04:14:14.477Z,25.20000076
2023-02-13T04:15:15.144Z,25.29999924
2023-02-13T04:16:15.812Z,23.89999962
2023-02-13T04:17:16.425Z,25.60000038
2023-02-13T04:18:17.899Z,24.5
2023-02-13T04:19:18.558Z,25.5
2023-02-13T04:20:19.202Z,26.10000038
2023-02-13T04:21:19.855Z,27.5
2023-02-13T04:22:20.515Z,24.39999962
2023-02-13T04:23:21.130Z,27.5
2023-02-13T04:24:22.465Z,24.5
2023-02-13T04:25:23.080Z,25
2023-02-13T04:26:23.686Z,28.10000038
2023-02-13T04:27:24.314Z,24.39999962
2023-02-13T04:28:25.968Z,26.70000076
2023-02-13T04:29:26.529Z,25.70000076
2023-02-13T04:30:57.830Z,24.89999962
2023-02-13T04:31:58.286Z,27.20000076
2023-02-13T04:32:58.927Z,26.79999924
2023-02-13T04:33:59.515Z,26
2023-02-13T04:35:00.123Z,25.70000076
2023-02-13T04:36:01.701Z,26.89999962
2023-02-13T04:37:02.351Z,25.10000038
2023-02-13T04:38:02.958Z,26.29999924
2023-02-13T04:39:04.239Z,28.39999962
2023-02-13T04:40:04.981Z,25.89999962
2023-02-13T04:41:05.601Z,27.5
2023-02-13T04:42:06.484Z,26.89999962
2023-02-13T04:43:06.821Z,25.70000076
2023-02-13T04:44:07.441Z,26.5
2023-02-13T04:45:08.096Z,26.60000038
2023-02-13T04:46:08.866Z,26.89999962
2023-02-13T04:47:09.412Z,26.89999962
2023-02-13T04:48:10.914Z,24.70000076
2023-02-13T04:49:11.472Z,27.89999962
2023-02-13T04:50:12.098Z,25.20000076
2023-02-13T04:51:13.425Z,25.29999924
2023-02-13T04:52:14.083Z,24.60000038
2023-02-13T04:53:14.712Z,25.89999962
2023-02-13T04:54:15.312Z,27.10000038
2023-02-13T04:55:16.788Z,24.89999962
2023-02-13T04:56:19.625Z,24.29999924
2023-02-13T04:57:18.003Z,25.39999962
2023-02-13T04:58:19.415Z,26.60000038
2023-02-13T04:59:20.003Z,27.39999962
2023-02-13T05:00:20.669Z,26.20000076
2023-02-13T05:01:21.305Z,25.10000038
2023-02-13T05:02:21.924Z,26.39999962
2023-02-13T05:03:22.587Z,25.10000038
2023-02-13T05:04:23.272Z,27.20000076
2023-02-13T05:05:23.869Z,26.60000038
2023-02-13T05:06:24.491Z,27.29999924
2023-02-13T05:07:25.064Z,27
2023-02-13T05:08:26.460Z,25.89999962
2023-02-13T05:09:57.407Z,26.60000038
2023-02-13T05:10:58.269Z,27.60000038
2023-02-13T05:11:58.615Z,22.89999962
2023-02-13T05:12:59.217Z,24.5
2023-02-13T05:13:59.772Z,27
2023-02-13T05:15:00.499Z,24.20000076
2023-02-13T05:16:01.289Z,25.10000038
2023-02-13T05:17:01.999Z,23.70000076
2023-02-13T05:18:02.697Z,27
2023-02-13T05:19:04.322Z,26.60000038
2023-02-13T05:20:04.924Z,27.89999962
2023-02-13T05:21:05.574Z,23.20000076
2023-02-13T05:22:06.204Z,25.10000038
2023-02-13T05:23:06.883Z,25.20000076
2023-02-13T05:24:08.303Z,25
2023-02-13T05:25:08.873Z,25.70000076
2023-02-13T05:26:10.603Z,26.79999924
2023-02-13T05:27:11.300Z,24.70000076
2023-02-13T05:28:11.984Z,28.89999962
2023-02-13T05:29:13.308Z,26.20000076
2023-02-13T05:30:13.928Z,24
2023-02-13T05:31:14.853Z,25.5
2023-02-13T05:32:15.413Z,27.5
2023-02-13T05:33:16.311Z,27.29999924
2023-02-13T05:34:16.904Z,26.60000038
2023-02-13T05:35:17.451Z,25.29999924
2023-02-13T05:36:18.312Z,24.79999924
2023-02-13T05:37:18.810Z,26.70000076
2023-02-13T05:38:19.409Z,27.89999962
2023-02-13T05:39:20.626Z,28.29999924
2023-02-13T05:40:22.887Z,27.79999924
2023-02-13T05:41:21.686Z,27.29999924
2023-02-13T05:42:22.118Z,27.5
2023-02-13T05:43:22.720Z,28.5
2023-02-13T05:44:23.271Z,27.5
2023-02-13T05:45:23.690Z,31.5
2023-02-13T05:46:24.354Z,27.39999962
2023-02-13T05:47:25.121Z,25.20000076
2023-02-13T05:48:26.088Z,30.79999924
2023-02-13T05:49:57.579Z,27.70000076
2023-02-13T05:50:58.372Z,26.20000076
2023-02-13T05:51:58.589Z,28.10000038
2023-02-13T05:52:59.079Z,31.20000076
2023-02-13T05:53:59.502Z,27.20000076
2023-02-13T05:55:00.884Z,32.20000076
2023-02-13T05:56:01.273Z,29.20000076
2023-02-13T05:57:02.065Z,29.5
2023-02-13T05:58:02.984Z,33.40000153
2023-02-13T05:59:03.851Z,31.89999962
2023-02-13T06:00:04.632Z,35.20000076
2023-02-13T06:01:05.183Z,45.90000153
2023-02-13T06:02:05.628Z,43.79999924
2023-02-13T06:03:06.345Z,44.90000153
2023-02-13T06:04:06.837Z,45.29999924
2023-02-13T06:05:07.440Z,48.09999847
2023-02-13T06:06:07.919Z,43.5
2023-02-13T06:07:08.375Z,41.29999924
2023-02-13T06:08:08.917Z,43.70000076
2023-02-13T06:09:09.326Z,51.09999847
2023-02-13T06:10:09.775Z,60.79999924
2023-02-13T06:11:10.625Z,55.70000076
2023-02-13T06:12:11.149Z,58.59999847
2023-02-13T06:13:11.692Z,59.90000153
2023-02-13T06:14:12.178Z,53.09999847
2023-02-13T06:15:12.647Z,59.90000153
2023-02-13T06:16:13.269Z,58
2023-02-13T06:17:13.751Z,70
2023-02-13T06:18:14.200Z,66.40000153
2023-02-13T06:19:15.967Z,58.09999847
2023-02-13T06:20:16.819Z,59.59999847
2023-02-13T06:21:17.243Z,56
2023-02-13T06:22:17.666Z,54.90000153
2023-02-13T06:23:18.393Z,58.79999924
2023-02-13T06:24:18.840Z,57.40000153
2023-02-13T06:25:19.902Z,63.29999924
2023-02-13T06:26:20.306Z,63.09999847
2023-02-13T06:27:20.743Z,58
2023-02-13T06:28:21.557Z,71
2023-02-13T06:29:22.956Z,74.90000153
2023-02-13T06:30:23.579Z,63.90000153
2023-02-13T06:31:24.036Z,60.09999847
2023-02-13T06:32:24.438Z,51.79999924
2023-02-13T06:33:24.986Z,54
2023-02-13T06:34:56.042Z,55
2023-02-13T06:35:56.875Z,52.59999847
2023-02-13T06:36:57.312Z,51.70000076
2023-02-13T06:37:57.730Z,53.70000076
2023-02-13T06:38:59.340Z,63.59999847
2023-02-13T06:39:59.805Z,51.5
2023-02-13T06:41:00.566Z,72.5
2023-02-13T06:42:01.016Z,54.5
2023-02-13T06:43:01.468Z,77.5
2023-02-13T06:44:02.234Z,67.59999847
2023-02-13T06:45:02.805Z,61.59999847
2023-02-13T06:46:03.245Z,61.5
2023-02-13T06:47:03.935Z,67
2023-02-13T06:48:04.302Z,69.80000305
2023-02-13T06:49:05.329Z,81.09999847
2023-02-13T06:50:06.079Z,83.69999695
2023-02-13T06:51:06.691Z,106.8000031
2023-02-13T06:52:07.065Z,83.40000153
2023-02-13T06:53:07.809Z,88.09999847
2023-02-13T06:54:08.251Z,77.69999695
2023-02-13T06:55:09.346Z,87.5
2023-02-13T06:56:10.028Z,89.80000305
2023-02-13T06:57:10.553Z,73.40000153
2023-02-13T06:58:11.158Z,80
2023-02-13T06:59:12.833Z,90.30000305
2023-02-13T07:00:13.269Z,91.90000153
2023-02-13T07:01:14.014Z,77.09999847
2023-02-13T07:02:14.516Z,83.19999695
2023-02-13T07:03:15.006Z,86.09999847
2023-02-13T07:04:15.829Z,73.59999847
2023-02-13T07:05:16.326Z,68.40000153
2023-02-13T07:06:16.781Z,72.09999847
2023-02-13T07:07:17.267Z,70
2023-02-13T07:08:17.764Z,70.19999695
2023-02-13T07:09:19.443Z,64.30000305
2023-02-13T07:10:20.200Z,73.19999695
2023-02-13T07:11:20.688Z,76.69999695
2023-02-13T07:12:22.148Z,60.5
2023-02-13T07:13:23.085Z,53.40000153
2023-02-13T07:14:23.639Z,60
2023-02-13T07:15:24.159Z,56.79999924
2023-02-13T07:16:25.453Z,83.5
2023-02-13T07:17:56.035Z,80.80000305
2023-02-13T07:18:56.829Z,62.90000153
2023-02-13T07:19:58.092Z,57.09999847
2023-02-13T07:20:59.034Z,53.70000076
2023-02-13T07:21:59.510Z,63.70000076
2023-02-13T07:22:59.923Z,63
2023-02-13T07:24:00.462Z,63.5
2023-02-13T07:25:01.279Z,56.09999847
2023-02-13T07:26:01.751Z,60
2023-02-13T07:27:02.386Z,86.90000153
2023-02-13T07:28:03.056Z,71.5
2023-02-13T07:29:11.140Z,62.29999924
2023-02-13T07:30:05.653Z,60.5
2023-02-13T07:31:06.507Z,57.70000076
2023-02-13T07:32:07.097Z,52.40000153
2023-02-13T07:33:07.468Z,69.5
2023-02-13T07:34:08.198Z,69.59999847
2023-02-13T07:35:08.642Z,84.59999847
2023-02-13T07:36:09.207Z,71.5
2023-02-13T07:37:10.029Z,73.80000305
2023-02-13T07:38:10.587Z,77.09999847
2023-02-13T07:39:11.697Z,60
2023-02-13T07:40:12.558Z,66.90000153
2023-02-13T07:41:14.468Z,87.30000305
2023-02-13T07:42:15.162Z,71.80000305
2023-02-13T07:43:15.590Z,75.90000153
2023-02-13T07:44:16.301Z,73.69999695
2023-02-13T07:45:16.827Z,72.69999695
2023-02-13T07:46:17.475Z,82.69999695
2023-02-13T07:47:20.082Z,73
2023-02-13T07:48:18.433Z,80
2023-02-13T07:49:19.140Z,65.69999695
2023-02-13T07:50:20.558Z,58.59999847
2023-02-13T07:51:21.151Z,63.5
2023-02-13T07:52:22.067Z,61.29999924
2023-02-13T07:53:22.589Z,65.09999847
2023-02-13T07:54:23.150Z,53
2023-02-13T07:55:24.372Z,66.80000305
2023-02-13T07:56:55.492Z,52
2023-02-13T07:57:56.050Z,54.70000076
2023-02-13T07:58:56.485Z,50.5
2023-02-13T07:59:57.855Z,54.5
2023-02-13T08:00:58.320Z,51.90000153
2023-02-13T08:01:58.960Z,51.90000153
2023-02-13T08:02:59.387Z,47.5
2023-02-13T08:03:59.934Z,45.29999924
2023-02-13T08:05:00.743Z,45.40000153
2023-02-13T08:06:01.221Z,48
2023-02-13T08:07:01.668Z,40.90000153
2023-02-13T08:08:02.542Z,46.5
2023-02-13T08:09:03.168Z,44.70000076
2023-02-13T08:10:04.775Z,42.70000076
2023-02-13T08:11:06.301Z,46.70000076
2023-02-13T08:12:06.956Z,44.70000076
2023-02-13T08:13:07.687Z,40.20000076
2023-02-13T08:14:08.549Z,49
2023-02-13T08:15:09.192Z,48.59999847
2023-02-13T08:16:09.919Z,43.79999924
2023-02-13T08:17:10.645Z,46
2023-02-13T08:18:11.625Z,44.90000153
2023-02-13T08:19:12.497Z,51.20000076
2023-02-13T08:20:13.711Z,42.09999847
2023-02-13T08:21:14.391Z,45.40000153
2023-02-13T08:24:16.508Z,47.90000153
2023-02-13T08:25:17.208Z,39.20000076
2023-02-13T08:26:18.880Z,37.29999924
2023-02-13T08:27:19.509Z,32.20000076
2023-02-13T08:28:20.319Z,36.40000153
2023-02-13T08:29:20.893Z,43.5
2023-02-13T08:30:22.354Z,50.59999847
2023-02-13T08:31:23.125Z,43.29999924
2023-02-13T08:32:23.881Z,40.40000153
2023-02-13T08:33:55.077Z,31.5
2023-02-13T08:34:55.854Z,35.29999924
2023-02-13T08:35:56.972Z,34.5
2023-02-13T08:36:57.241Z,31.39999962
2023-02-13T08:37:57.932Z,33.90000153
2023-02-13T08:38:58.679Z,36
2023-02-13T08:40:00.487Z,33.59999847
2023-02-13T08:41:01.181Z,36.40000153
2023-02-13T08:42:01.968Z,34
2023-02-13T08:43:02.592Z,43.90000153
2023-02-13T08:44:04.889Z,36.09999847
2023-02-13T08:45:03.967Z,30.70000076
2023-02-13T08:46:04.743Z,31.60000038
2023-02-13T08:47:05.315Z,33.09999847
2023-02-13T08:48:06.009Z,34.40000153
2023-02-13T08:49:06.672Z,29.89999962
2023-02-13T08:50:07.951Z,35.59999847
2023-02-13T08:51:08.725Z,31.89999962
2023-02-13T08:52:09.478Z,31.5
2023-02-13T08:53:10.074Z,29.39999962
2023-02-13T08:54:10.961Z,30.29999924
2023-02-13T08:55:11.534Z,30.39999962
2023-02-13T08:56:12.970Z,33.70000076
2023-02-13T08:57:13.667Z,34.59999847
2023-02-13T08:58:14.403Z,36.70000076
2023-02-13T08:59:15.037Z,33.70000076
2023-02-13T09:00:16.353Z,32.70000076
2023-02-13T09:01:17.038Z,31.29999924
2023-02-13T09:02:17.540Z,34.29999924
2023-02-13T09:03:18.356Z,33.5
2023-02-13T09:04:18.872Z,39.79999924
2023-02-13T09:05:19.406Z,30.70000076
2023-02-13T09:06:20.102Z,34.59999847
2023-02-13T09:07:20.784Z,32.09999847
2023-02-13T09:08:21.392Z,37.59999847
2023-02-13T09:09:22.041Z,30.60000038
2023-02-13T09:10:23.377Z,29.29999924
2023-02-13T09:11:54.550Z,28.5
2023-02-13T09:12:55.190Z,29.60000038
2023-02-13T09:13:55.880Z,29.89999962
2023-02-13T09:14:56.447Z,32.5
2023-02-13T09:15:57.974Z,33
2023-02-13T09:16:58.396Z,29.20000076
2023-02-13T09:17:58.990Z,33
2023-02-13T09:18:59.635Z,35.29999924
2023-02-13T09:20:01.226Z,31.5
2023-02-13T09:21:02.669Z,31.20000076
2023-02-13T09:22:03.319Z,30.79999924
2023-02-13T09:23:04.905Z,31.29999924
2023-02-13T09:24:05.481Z,33.40000153
2023-02-13T09:25:06.861Z,31.20000076
2023-02-13T09:26:07.523Z,29.29999924
2023-02-13T09:27:08.164Z,27.39999962
2023-02-13T09:28:08.793Z,27.70000076
2023-02-13T09:29:09.375Z,27.10000038
2023-02-13T09:30:10.892Z,28.39999962
2023-02-13T09:31:11.564Z,25
2023-02-13T09:32:12.922Z,24.10000038
2023-02-13T09:33:13.517Z,22.60000038
2023-02-13T09:34:14.148Z,24.79999924
2023-02-13T09:35:15.406Z,24.10000038
2023-02-13T09:36:15.963Z,25
2023-02-13T09:37:16.565Z,24.29999924
2023-02-13T09:38:17.184Z,26.29999924
2023-02-13T09:39:17.811Z,25.5
2023-02-13T09:40:19.403Z,25.5
2023-02-13T09:41:19.978Z,23.10000038
2023-02-13T09:42:20.600Z,25
2023-02-13T09:43:21.293Z,25.29999924
2023-02-13T09:44:22.005Z,33.29999924
2023-02-13T09:45:22.659Z,27
2023-02-13T09:46:23.831Z,24.70000076
2023-02-13T09:47:55.570Z,24.70000076
2023-02-13T09:48:56.230Z,25.39999962
2023-02-13T09:49:56.872Z,29.5
2023-02-13T09:50:58.240Z,26.39999962
2023-02-13T09:51:58.800Z,25.39999962
2023-02-13T09:52:59.431Z,26.29999924
2023-02-13T09:54:00.166Z,23.39999962
2023-02-13T09:55:00.977Z,23.89999962
2023-02-13T09:56:02.204Z,25.5
2023-02-13T09:57:02.920Z,27.20000076
2023-02-13T09:58:03.623Z,26.29999924
2023-02-13T09:59:04.272Z,23
2023-02-13T10:00:04.899Z,26.10000038
2023-02-13T10:01:06.270Z,25.60000038
2023-02-13T10:02:06.946Z,26
2023-02-13T10:03:07.555Z,26.20000076
2023-02-13T10:04:08.256Z,27.60000038
2023-02-13T10:05:09.466Z,25.70000076
2023-02-13T10:06:10.097Z,28
2023-02-13T10:07:10.895Z,29
2023-02-13T10:08:11.474Z,28.10000038
2023-02-13T10:09:12.129Z,29.89999962
2023-02-13T10:10:12.930Z,26.89999962
2023-02-13T10:11:14.200Z,41.59999847
2023-02-13T10:12:14.855Z,27.70000076
2023-02-13T10:13:15.424Z,29.5
2023-02-13T10:14:16.076Z,27.79999924
2023-02-13T10:15:16.792Z,26.79999924
2023-02-13T10:16:17.517Z,28.79999924
2023-02-13T10:17:18.007Z,28.89999962
2023-02-13T10:18:18.596Z,28.5
2023-02-13T10:19:19.190Z,28.29999924
2023-02-13T10:20:20.002Z,29.70000076
2023-02-13T10:21:21.224Z,31
2023-02-13T10:22:21.822Z,27.79999924
2023-02-13T10:23:22.478Z,29.60000038
2023-02-13T10:24:53.602Z,27.29999924
2023-02-13T10:25:54.262Z,29.79999924
2023-02-13T10:26:55.706Z,38.29999924
2023-02-13T10:27:56.321Z,33.5
2023-02-13T10:28:56.949Z,29.79999924
2023-02-13T10:29:57.576Z,30.5
2023-02-13T10:30:59.084Z,28.79999924
2023-02-13T10:31:59.709Z,32.09999847
2023-02-13T10:33:00.320Z,31.89999962
2023-02-13T10:34:00.936Z,31.70000076
2023-02-13T10:35:01.551Z,36.59999847
2023-02-13T10:36:02.792Z,32.59999847
2023-02-13T10:37:03.397Z,34.5
2023-02-13T10:38:03.989Z,30.20000076
2023-02-13T10:39:04.659Z,32.90000153
2023-02-13T10:40:05.216Z,31.70000076
2023-02-13T10:41:06.371Z,41.59999847
2023-02-13T10:42:07.167Z,38.5
2023-02-13T10:43:07.782Z,34.40000153
2023-02-13T10:44:08.421Z,33.09999847
2023-02-13T10:45:09.010Z,29.39999962
2023-02-13T10:46:09.619Z,31.89999962
2023-02-13T10:47:10.583Z,30.60000038
2023-02-13T10:48:11.259Z,29.10000038
2023-02-13T10:49:11.952Z,30.29999924
2023-02-13T10:50:12.524Z,30
2023-02-13T10:51:13.910Z,33.09999847
2023-02-13T10:52:14.544Z,33.5
2023-02-13T10:53:15.194Z,31
2023-02-13T10:54:15.779Z,31.79999924
2023-02-13T10:55:16.428Z,34.5
2023-02-13T10:56:17.107Z,31.5
2023-02-13T10:57:18.818Z,34.70000076
2023-02-13T10:58:19.416Z,32.5
2023-02-13T10:59:20.070Z,31.29999924
2023-02-13T11:00:20.793Z,31.70000076
2023-02-13T11:01:21.932Z,31.70000076
2023-02-13T11:02:53.396Z,32.29999924
2023-02-13T11:03:54.028Z,33.09999847
2023-02-13T11:04:54.728Z,37.20000076
2023-02-13T11:05:55.548Z,38.29999924
2023-02-13T11:06:56.092Z,33.5
2023-02-13T11:07:56.784Z,32
2023-02-13T11:08:57.325Z,32.79999924
2023-02-13T11:09:58.042Z,33.40000153
2023-02-13T11:10:58.691Z,33.40000153
2023-02-13T11:12:00.140Z,32.90000153
2023-02-13T11:13:00.771Z,36.20000076
2023-02-13T11:14:01.364Z,33.29999924
2023-02-13T11:15:02.081Z,38.09999847
2023-02-13T11:16:03.933Z,35.79999924
2023-02-13T11:17:04.306Z,37
2023-02-13T11:18:04.917Z,33
2023-02-13T11:19:05.533Z,32.79999924
2023-02-13T11:20:06.179Z,32.40000153
2023-02-13T11:21:07.355Z,34.40000153
2023-02-13T11:22:07.949Z,33.29999924
2023-02-13T11:23:08.566Z,32.09999847
2023-02-13T11:24:09.183Z,36.09999847
2023-02-13T11:25:09.906Z,33.59999847
2023-02-13T11:26:11.154Z,34.70000076
2023-02-13T11:27:11.792Z,36
2023-02-13T11:28:12.495Z,30.10000038
2023-02-13T11:29:13.014Z,32.29999924
2023-02-13T11:30:14.449Z,32.59999847
2023-02-13T11:31:15.999Z,31.70000076
2023-02-13T11:32:16.653Z,30.10000038
2023-02-13T11:33:17.071Z,36.09999847
2023-02-13T11:34:17.648Z,36.20000076
2023-02-13T11:35:18.234Z,33.09999847
2023-02-13T11:36:18.778Z,33.40000153
2023-02-13T11:37:19.415Z,32.09999847
2023-02-13T11:38:20.147Z,32.20000076
2023-02-13T11:39:20.749Z,32.90000153
2023-02-13T11:40:21.373Z,30.39999962
2023-02-13T11:41:53.733Z,31.89999962
2023-02-13T11:42:54.472Z,33.59999847